Time;durP1;ratioP1;P1;durP2;ratioP2;P2;SDS_P1;SDS_P2;PMS_P1;PMS_P2;Temp;Humidity;BMP_temperature;BMP_pressure;BME280_temperature;BME280_humidity;BME280_pressure;Samples;Min_cycle;Max_cycle;Signal;HPM_P1;HPM_P2
2021/12/28 00:00:11;;;;;;;5.72;1.77;;;9.00;99.90;;;;;;5000316;28;20049;-49
2021/12/28 00:02:37;;;;;;;2.85;1.80;;;9.00;99.90;;;;;;4998200;28;20421;-50
2021/12/28 00:05:03;;;;;;;6.55;1.73;;;9.00;99.90;;;;;;5001081;28;20040;-50
2021/12/28 00:07:29;;;;;;;3.13;2.17;;;9.00;99.90;;;;;;5003595;28;20404;-50
2021/12/28 00:09:55;;;;;;;6.07;2.28;;;9.00;99.90;;;;;;5003681;28;20026;-48
2021/12/28 00:12:20;;;;;;;6.10;1.77;;;9.00;99.90;;;;;;5000006;28;20044;-50
2021/12/28 00:15:02;;;;;;;3.03;1.85;;;9.00;99.90;;;;;;5002503;28;20026;-50
2021/12/28 00:20:12;;;;;;;4.45;2.13;;;9.00;99.90;;;;;;5001777;28;20239;-49
2021/12/28 00:22:38;;;;;;;0.45;0.45;;;9.00;99.90;;;;;;4997189;28;20117;-50
2021/12/28 00:25:05;;;;;;;4.53;2.25;;;9.00;99.90;;;;;;5001295;28;20153;-50
2021/12/28 00:27:31;;;;;;;4.78;1.88;;;9.00;99.90;;;;;;4999379;28;20542;-50
2021/12/28 00:29:57;;;;;;;3.83;2.03;;;9.10;99.90;;;;;;5002041;28;20543;-50
2021/12/28 00:32:23;;;;;;;6.03;2.58;;;9.00;99.90;;;;;;5003706;28;20034;-50
2021/12/28 00:34:48;;;;;;;4.93;1.73;;;9.00;99.90;;;;;;4999473;28;20041;-50
2021/12/28 00:37:14;;;;;;;6.75;2.45;;;9.00;99.90;;;;;;5000106;28;20031;-50
2021/12/28 00:39:39;;;;;;;7.53;2.75;;;9.00;99.90;;;;;;5003498;28;20030;-49
2021/12/28 00:42:07;;;;;;;7.68;1.73;;;9.10;99.90;;;;;;4997514;28;20029;-50
2021/12/28 00:44:33;;;;;;;3.38;1.58;;;9.00;99.90;;;;;;5000409;28;20058;-50
2021/12/28 00:46:59;;;;;;;9.45;2.05;;;9.10;99.90;;;;;;4999892;28;20026;-50
2021/12/28 00:49:24;;;;;;;3.95;2.40;;;9.00;99.90;;;;;;5002322;28;20080;-50
2021/12/28 00:51:50;;;;;;;6.50;2.63;;;9.00;99.90;;;;;;4999376;28;20448;-49
2021/12/28 00:54:16;;;;;;;7.22;2.42;;;9.10;99.90;;;;;;4997799;28;20077;-50
2021/12/28 00:56:41;;;;;;;6.22;2.17;;;9.00;99.90;;;;;;4999089;28;20049;-50
2021/12/28 00:59:07;;;;;;;4.78;1.77;;;9.00;99.90;;;;;;5000916;28;20124;-50
2021/12/28 01:01:33;;;;;;;3.67;2.33;;;9.00;99.90;;;;;;5000080;28;20053;-50
2021/12/28 01:03:59;;;;;;;4.38;2.30;;;9.00;99.90;;;;;;4999248;28;20076;-50
2021/12/28 01:06:24;;;;;;;5.00;2.22;;;9.00;99.90;;;;;;5002814;28;20116;-50
2021/12/28 01:08:50;;;;;;;3.63;2.08;;;9.00;99.90;;;;;;5002453;28;20121;-50
2021/12/28 01:11:16;;;;;;;4.00;1.20;;;9.10;99.90;;;;;;4998801;28;20022;-50
2021/12/28 01:13:41;;;;;;;5.15;1.98;;;9.00;99.90;;;;;;5002722;28;20092;-50
2021/12/28 01:16:08;;;;;;;4.63;2.03;;;9.00;99.90;;;;;;5005595;28;20449;-50
2021/12/28 01:18:34;;;;;;;4.07;1.83;;;9.00;99.90;;;;;;5003602;28;20026;-50
2021/12/28 01:21:00;;;;;;;2.35;1.60;;;9.00;99.90;;;;;;5003494;28;20104;-50
2021/12/28 01:23:26;;;;;;;1.73;1.48;;;9.00;99.90;;;;;;5002035;28;20031;-50
2021/12/28 01:25:52;;;;;;;2.70;1.83;;;9.00;99.90;;;;;;5002542;28;20353;-50
2021/12/28 01:28:19;;;;;;;6.13;2.50;;;9.00;99.90;;;;;;5005262;28;20035;-50
2021/12/28 01:30:45;;;;;;;3.75;1.92;;;9.00;99.90;;;;;;5003095;28;20018;-50
2021/12/28 01:33:11;;;;;;;4.75;1.30;;;9.00;99.90;;;;;;5003284;28;20029;-50
2021/12/28 01:35:38;;;;;;;4.82;2.30;;;9.00;99.90;;;;;;5008870;28;20542;-50
2021/12/28 01:38:04;;;;;;;3.85;2.33;;;9.00;99.90;;;;;;5002335;28;20463;-50
2021/12/28 01:40:33;;;;;;;3.63;2.22;;;9.00;99.90;;;;;;5004205;28;20072;-50
2021/12/28 01:43:10;;;;;;;3.67;2.20;;;9.00;99.90;;;;;;5001802;28;20231;-50
2021/12/28 01:45:38;;;;;;;2.55;1.75;;;9.00;99.90;;;;;;5005014;28;20495;-50
2021/12/28 01:48:06;;;;;;;3.15;2.30;;;9.00;99.90;;;;;;5001322;28;20022;-50
2021/12/28 01:50:33;;;;;;;6.75;2.60;;;9.00;99.90;;;;;;5004933;28;20037;-49
2021/12/28 01:52:59;;;;;;;8.68;2.90;;;9.00;99.90;;;;;;4999932;28;20469;-50
2021/12/28 01:55:25;;;;;;;5.03;2.45;;;9.00;99.90;;;;;;5003616;28;20048;-50
2021/12/28 01:57:51;;;;;;;6.85;2.28;;;9.00;99.90;;;;;;5008229;28;20049;-50
2021/12/28 02:00:17;;;;;;;6.20;2.35;;;9.00;99.90;;;;;;5002233;28;20265;-50
2021/12/28 02:02:43;;;;;;;7.90;2.40;;;9.00;99.90;;;;;;5004357;28;20084;-50
2021/12/28 02:05:09;;;;;;;3.53;2.20;;;9.00;99.90;;;;;;5001632;28;20354;-48
2021/12/28 02:07:35;;;;;;;7.25;2.63;;;9.00;99.90;;;;;;5005710;28;20030;-50
2021/12/28 02:10:01;;;;;;;4.30;1.85;;;9.00;99.90;;;;;;5002458;28;20034;-50
2021/12/28 02:12:29;;;;;;;4.47;2.15;;;9.00;99.90;;;;;;5001178;28;20326;-50
2021/12/28 02:14:55;;;;;;;3.33;1.70;;;9.00;99.90;;;;;;5003526;28;20258;-50
2021/12/28 02:17:21;;;;;;;2.88;1.98;;;9.00;99.90;;;;;;5005764;28;20015;-50
2021/12/28 02:19:46;;;;;;;5.85;1.90;;;9.00;99.90;;;;;;5000611;28;20112;-50
2021/12/28 02:22:12;;;;;;;4.22;2.25;;;9.00;99.90;;;;;;5002013;28;20026;-50
2021/12/28 02:24:38;;;;;;;4.93;2.35;;;9.00;99.90;;;;;;5001430;28;20022;-50
2021/12/28 02:27:04;;;;;;;4.25;2.08;;;9.00;99.90;;;;;;5003334;28;20054;-50
2021/12/28 02:29:29;;;;;;;3.97;2.03;;;9.00;99.90;;;;;;5006381;28;20038;-50
2021/12/28 02:31:55;;;;;;;6.47;2.88;;;9.00;99.90;;;;;;5001037;28;20022;-50
2021/12/28 02:34:25;;;;;;;5.13;2.00;;;9.00;99.90;;;;;;5003998;28;20509;-50
2021/12/28 02:36:52;;;;;;;3.25;1.65;;;9.00;99.90;;;;;;5003160;28;20097;-50
2021/12/28 02:39:18;;;;;;;3.40;2.75;;;9.00;99.90;;;;;;4998809;28;20073;-50
2021/12/28 02:41:44;;;;;;;4.88;2.38;;;9.00;99.90;;;;;;5003307;28;20133;-50
2021/12/28 02:44:10;;;;;;;7.38;2.13;;;9.00;99.90;;;;;;5001433;28;20033;-50
2021/12/28 02:46:36;;;;;;;7.03;2.83;;;9.00;99.90;;;;;;5003684;28;20097;-50
2021/12/28 02:49:02;;;;;;;4.75;2.78;;;8.90;99.90;;;;;;5002591;28;20073;-50
2021/12/28 02:51:28;;;;;;;4.18;2.25;;;8.90;99.90;;;;;;5004203;28;20113;-50
2021/12/28 02:53:53;;;;;;;4.28;2.10;;;9.00;99.90;;;;;;5001757;28;20106;-50
2021/12/28 02:56:20;;;;;;;5.95;2.42;;;8.90;99.90;;;;;;5005675;28;20105;-50
2021/12/28 02:58:51;;;;;;;4.65;2.30;;;8.90;99.90;;;;;;5003272;28;20108;-50
2021/12/28 03:01:19;;;;;;;3.20;2.25;;;8.90;99.90;;;;;;4999949;28;20354;-50
2021/12/28 03:03:46;;;;;;;5.53;2.58;;;8.90;99.90;;;;;;5000262;28;20030;-50
2021/12/28 03:06:14;;;;;;;4.63;2.20;;;8.90;99.90;;;;;;5004489;28;20030;-50
2021/12/28 03:08:43;;;;;;;3.28;2.22;;;8.90;99.90;;;;;;5001896;28;20044;-50
2021/12/28 03:11:10;;;;;;;4.68;2.33;;;8.90;99.90;;;;;;5004847;28;20018;-50
2021/12/28 03:13:45;;;;;;;6.45;2.92;;;8.90;99.90;;;;;;5000740;28;20389;-50
2021/12/28 03:16:11;;;;;;;4.63;2.38;;;8.90;99.90;;;;;;5001102;28;20052;-50
2021/12/28 03:18:37;;;;;;;6.20;3.20;;;8.90;99.90;;;;;;5000789;28;20035;-50
2021/12/28 03:21:05;;;;;;;4.57;2.35;;;8.90;99.90;;;;;;5003805;28;20049;-50
2021/12/28 03:23:31;;;;;;;4.30;2.78;;;8.90;99.90;;;;;;5003041;28;20397;-50
2021/12/28 03:25:57;;;;;;;3.00;2.25;;;8.90;99.90;;;;;;5000289;28;20026;-50
2021/12/28 03:28:29;;;;;;;2.70;2.22;;;8.90;99.90;;;;;;5002728;28;20026;-50
2021/12/28 03:30:57;;;;;;;3.55;1.80;;;8.90;99.90;;;;;;5002971;28;20079;-50
2021/12/28 03:33:25;;;;;;;7.97;2.35;;;8.90;99.90;;;;;;5003642;28;20038;-50
2021/12/28 03:35:51;;;;;;;3.38;2.08;;;8.90;99.90;;;;;;5001142;28;20026;-50
2021/12/28 03:38:18;;;;;;;3.03;2.03;;;8.90;99.90;;;;;;4994598;28;20404;-50
2021/12/28 03:40:44;;;;;;;12.35;2.75;;;8.90;99.90;;;;;;5005936;28;20038;-50
2021/12/28 03:43:09;;;;;;;4.28;2.28;;;8.90;99.90;;;;;;5001356;28;20029;-50
2021/12/28 03:45:35;;;;;;;11.07;3.47;;;8.90;99.90;;;;;;5000201;28;20076;-50
2021/12/28 03:48:04;;;;;;;5.43;2.50;;;8.90;99.90;;;;;;4998778;28;20034;-50
2021/12/28 03:50:30;;;;;;;7.70;2.60;;;8.90;99.90;;;;;;5000374;28;20023;-50
2021/12/28 03:52:56;;;;;;;4.32;2.08;;;8.90;99.90;;;;;;5000695;28;20025;-50
2021/12/28 03:55:24;;;;;;;2.65;2.00;;;8.90;99.90;;;;;;4999732;28;20040;-50
2021/12/28 03:57:51;;;;;;;4.32;1.95;;;8.90;99.90;;;;;;5003414;28;20184;-50
2021/12/28 04:00:19;;;;;;;4.30;2.28;;;8.90;99.90;;;;;;5001408;28;20029;-50
2021/12/28 04:02:44;;;;;;;5.10;2.60;;;8.80;99.90;;;;;;4997784;28;20078;-50
2021/12/28 04:05:11;;;;;;;3.55;2.10;;;8.80;99.90;;;;;;5002295;28;20061;-49
2021/12/28 04:07:37;;;;;;;3.10;2.08;;;8.80;99.90;;;;;;5002474;28;20018;-50
2021/12/28 04:10:07;;;;;;;4.55;2.63;;;8.80;99.90;;;;;;5001502;28;20033;-50
2021/12/28 04:12:32;;;;;;;3.72;2.58;;;8.90;99.90;;;;;;5000847;28;20045;-50
2021/12/28 04:14:59;;;;;;;3.97;1.92;;;8.80;99.90;;;;;;4999396;28;20374;-50
2021/12/28 04:17:26;;;;;;;4.95;2.65;;;8.80;99.90;;;;;;5002141;28;20025;-49
2021/12/28 04:19:51;;;;;;;4.10;2.95;;;8.90;99.90;;;;;;5002563;28;20045;-50
2021/12/28 04:22:17;;;;;;;8.02;2.63;;;8.80;99.90;;;;;;5001745;28;20117;-50
2021/12/28 04:24:43;;;;;;;4.85;3.00;;;8.80;99.90;;;;;;5001956;28;20103;-50
2021/12/28 04:27:09;;;;;;;4.60;2.22;;;8.80;99.90;;;;;;5001926;28;20462;-50
2021/12/28 04:29:34;;;;;;;5.00;2.70;;;8.80;99.90;;;;;;5000595;28;20022;-50
2021/12/28 04:32:00;;;;;;;7.85;2.67;;;8.80;99.90;;;;;;4999076;28;20483;-50
2021/12/28 04:34:26;;;;;;;3.05;2.10;;;8.80;99.90;;;;;;5000067;28;20031;-50
2021/12/28 04:36:51;;;;;;;5.53;2.45;;;8.80;99.90;;;;;;5002237;28;20379;-50
2021/12/28 04:39:17;;;;;;;4.18;2.47;;;8.80;99.90;;;;;;5000089;28;20042;-50
2021/12/28 04:41:43;;;;;;;4.03;2.20;;;8.80;99.90;;;;;;5002784;28;20029;-50
2021/12/28 04:44:12;;;;;;;3.30;2.05;;;8.80;99.90;;;;;;4999128;28;20120;-50
2021/12/28 04:46:37;;;;;;;3.45;2.35;;;8.80;99.90;;;;;;5000738;28;20026;-50
2021/12/28 04:49:03;;;;;;;2.90;1.95;;;8.80;99.90;;;;;;5002349;28;20025;-50
2021/12/28 04:51:29;;;;;;;3.72;2.13;;;8.80;99.90;;;;;;5003075;28;20111;-50
2021/12/28 04:53:56;;;;;;;10.77;2.55;;;8.80;99.90;;;;;;5003856;28;20437;-50
2021/12/28 04:56:21;;;;;;;6.90;2.50;;;8.80;99.90;;;;;;5005047;28;20072;-50
2021/12/28 04:58:47;;;;;;;3.53;2.10;;;8.80;99.90;;;;;;5003887;28;20042;-50
2021/12/28 05:01:13;;;;;;;4.22;2.30;;;8.80;99.90;;;;;;5003991;28;20053;-49
2021/12/28 05:03:39;;;;;;;3.72;2.20;;;8.80;99.90;;;;;;5006213;28;20038;-50
2021/12/28 05:06:05;;;;;;;4.95;2.75;;;8.80;99.90;;;;;;5006770;28;20510;-50
2021/12/28 05:08:31;;;;;;;3.13;2.22;;;8.80;99.90;;;;;;5003723;28;20050;-50
2021/12/28 05:10:56;;;;;;;2.30;1.85;;;8.80;99.90;;;;;;5004773;28;20080;-50
2021/12/28 05:13:23;;;;;;;2.88;2.05;;;8.80;99.90;;;;;;5002495;28;20117;-50
2021/12/28 05:15:49;;;;;;;3.17;2.00;;;8.80;99.90;;;;;;5002809;28;20448;-50
2021/12/28 05:18:15;;;;;;;3.17;2.45;;;8.80;99.90;;;;;;5003427;28;20041;-50
2021/12/28 05:20:41;;;;;;;5.53;2.38;;;8.80;99.90;;;;;;5003693;28;20034;-50
2021/12/28 05:23:08;;;;;;;6.03;2.67;;;8.80;99.90;;;;;;5005513;28;20121;-50
2021/12/28 05:25:34;;;;;;;4.70;2.58;;;8.80;99.90;;;;;;5002799;28;20030;-50
2021/12/28 05:28:01;;;;;;;5.15;2.40;;;8.80;99.90;;;;;;5003107;28;20061;-50
2021/12/28 05:30:27;;;;;;;5.00;2.35;;;8.80;99.90;;;;;;5005017;28;20030;-50
2021/12/28 05:32:52;;;;;;;4.32;2.03;;;8.80;99.90;;;;;;5004663;28;20025;-50
2021/12/28 05:35:18;;;;;;;4.28;2.22;;;8.80;99.90;;;;;;5000797;28;20468;-50
2021/12/28 05:37:44;;;;;;;3.40;2.20;;;8.80;99.90;;;;;;5005682;28;20109;-50
2021/12/28 05:40:12;;;;;;;3.20;2.42;;;8.80;99.90;;;;;;5003192;28;20499;-50
2021/12/28 05:42:37;;;;;;;3.95;2.65;;;8.80;99.90;;;;;;5004287;28;20037;-50
2021/12/28 05:45:04;;;;;;;4.53;2.33;;;8.80;99.90;;;;;;5005812;28;20025;-50
2021/12/28 05:47:30;;;;;;;6.72;2.90;;;8.80;99.90;;;;;;5004263;28;20026;-50
2021/12/28 05:49:55;;;;;;;3.05;2.38;;;8.80;99.90;;;;;;5002351;28;20478;-50
2021/12/28 05:52:22;;;;;;;4.07;2.45;;;8.80;99.90;;;;;;5003899;28;20026;-50
2021/12/28 05:54:48;;;;;;;5.75;2.95;;;8.80;99.90;;;;;;5002170;28;20030;-50
2021/12/28 05:57:14;;;;;;;5.00;2.33;;;8.80;99.90;;;;;;5001610;28;20080;-50
2021/12/28 05:59:39;;;;;;;5.20;2.40;;;8.80;99.90;;;;;;5003083;28;20030;-50
2021/12/28 06:02:05;;;;;;;5.05;2.60;;;8.90;99.90;;;;;;5001867;28;20030;-50
2021/12/28 06:04:31;;;;;;;7.50;2.10;;;8.80;99.90;;;;;;5002098;28;20137;-50
2021/12/28 06:06:57;;;;;;;5.05;2.58;;;8.80;99.90;;;;;;5005486;28;20109;-50
2021/12/28 06:09:23;;;;;;;5.20;2.35;;;8.90;99.90;;;;;;4998113;28;20516;-50
2021/12/28 06:11:48;;;;;;;4.10;2.35;;;8.80;99.90;;;;;;5001325;28;20049;-50
2021/12/28 06:14:14;;;;;;;3.83;2.28;;;8.90;99.90;;;;;;5003232;28;20037;-50
2021/12/28 06:16:39;;;;;;;2.15;1.73;;;8.80;99.90;;;;;;5006057;28;20034;-50
2021/12/28 06:19:06;;;;;;;5.05;1.55;;;8.80;99.90;;;;;;5004384;28;20032;-50
2021/12/28 06:21:33;;;;;;;2.60;1.58;;;8.80;99.90;;;;;;5002129;28;20158;-50
2021/12/28 06:24:00;;;;;;;3.53;2.08;;;8.80;99.90;;;;;;5001452;28;20030;-50
2021/12/28 06:26:30;;;;;;;4.25;1.73;;;8.80;99.90;;;;;;5003093;28;20034;-50
2021/12/28 06:28:56;;;;;;;4.38;1.75;;;8.80;99.90;;;;;;5005264;28;20158;-49
2021/12/28 06:31:23;;;;;;;8.75;1.45;;;8.90;99.90;;;;;;5002919;28;20037;-50
2021/12/28 06:33:49;;;;;;;2.40;1.38;;;8.80;99.90;;;;;;5002644;28;20033;-50
2021/12/28 06:36:14;;;;;;;3.35;2.00;;;8.90;99.90;;;;;;4999643;28;20397;-50
2021/12/28 06:38:40;;;;;;;2.03;1.13;;;8.90;99.90;;;;;;5009493;28;20025;-50
2021/12/28 06:41:07;;;;;;;0.50;0.50;;;8.90;99.90;;;;;;5005512;28;20085;-50
2021/12/28 06:43:33;;;;;;;2.33;1.15;;;8.80;99.90;;;;;;5010739;28;20030;-50
2021/12/28 06:45:58;;;;;;;0.45;0.40;;;8.80;99.90;;;;;;5005194;28;20113;-50
2021/12/28 06:48:24;;;;;;;10.35;1.38;;;8.90;99.90;;;;;;5005117;28;20116;-50
2021/12/28 06:50:50;;;;;;;3.83;1.20;;;8.80;99.90;;;;;;5000467;28;20037;-50
2021/12/28 06:53:17;;;;;;;1.85;1.58;;;8.90;99.90;;;;;;5001989;28;20061;-51
2021/12/28 06:55:42;;;;;;;0.50;0.50;;;8.90;99.90;;;;;;5003289;28;20326;-50
2021/12/28 06:58:08;;;;;;;10.88;2.95;;;8.90;99.90;;;;;;5000878;28;20429;-50
2021/12/28 07:00:34;;;;;;;0.60;0.38;;;8.80;99.90;;;;;;5001298;28;20129;-50
2021/12/28 07:03:00;;;;;;;0.57;0.57;;;8.90;99.90;;;;;;5002915;28;20033;-50
2021/12/28 07:05:26;;;;;;;5.43;0.77;;;8.90;99.90;;;;;;5001359;28;20054;-50
2021/12/28 07:07:52;;;;;;;0.90;0.70;;;8.80;99.90;;;;;;5004907;28;20037;-50
2021/12/28 07:10:20;;;;;;;0.40;0.40;;;8.90;99.90;;;;;;5000101;28;20351;-50
2021/12/28 07:12:50;;;;;;;1.92;0.75;;;8.90;99.90;;;;;;5001694;28;20022;-50
2021/12/28 07:15:16;;;;;;;0.38;0.38;;;8.90;99.90;;;;;;5003018;28;20547;-50
2021/12/28 07:17:42;;;;;;;1.50;0.73;;;8.90;99.90;;;;;;5001045;28;20035;-50
2021/12/28 07:20:08;;;;;;;0.60;0.60;;;8.90;99.90;;;;;;5003908;28;20178;-50
2021/12/28 07:22:35;;;;;;;0.30;0.30;;;8.90;99.90;;;;;;4999590;28;20037;-50
2021/12/28 07:25:00;;;;;;;1.40;0.98;;;8.90;99.90;;;;;;5001659;28;20030;-50
2021/12/28 07:27:26;;;;;;;0.85;0.77;;;8.90;99.90;;;;;;4999462;28;20061;-50
2021/12/28 07:29:52;;;;;;;1.55;0.85;;;8.90;99.90;;;;;;5003643;28;20339;-50
2021/12/28 07:32:17;;;;;;;5.65;1.38;;;8.90;99.90;;;;;;5001056;28;20041;-50
2021/12/28 07:34:43;;;;;;;0.88;0.63;;;8.90;99.90;;;;;;5002304;28;20036;-50
2021/12/28 07:37:09;;;;;;;0.30;0.30;;;8.90;99.90;;;;;;5000521;28;20512;-50
2021/12/28 07:39:34;;;;;;;1.88;0.85;;;8.90;99.90;;;;;;5002026;28;20045;-50
2021/12/28 07:42:00;;;;;;;2.38;1.10;;;8.90;99.90;;;;;;4999374;28;20072;-50
2021/12/28 07:44:26;;;;;;;0.95;0.82;;;8.90;99.90;;;;;;5000886;28;20034;-50
2021/12/28 07:46:52;;;;;;;0.50;0.50;;;8.90;99.90;;;;;;5001072;28;20026;-50
2021/12/28 07:49:17;;;;;;;0.55;0.55;;;8.90;99.90;;;;;;5005536;28;20025;-50
2021/12/28 07:51:43;;;;;;;5.22;0.80;;;8.90;99.90;;;;;;4999794;28;20038;-50
2021/12/28 07:54:08;;;;;;;4.60;1.77;;;8.90;99.90;;;;;;5001382;28;20034;-50
2021/12/28 07:56:34;;;;;;;0.73;0.70;;;8.90;99.90;;;;;;5000224;28;20029;-50
2021/12/28 07:59:00;;;;;;;0.55;0.47;;;8.90;99.90;;;;;;5002113;28;20052;-50
2021/12/28 08:01:25;;;;;;;0.50;0.50;;;8.90;99.90;;;;;;4998529;28;20037;-50
2021/12/28 08:03:51;;;;;;;0.45;0.45;;;8.90;99.90;;;;;;5002471;28;20021;-50
2021/12/28 08:06:17;;;;;;;0.77;0.77;;;8.90;99.90;;;;;;5002672;28;20041;-50
2021/12/28 08:08:43;;;;;;;0.32;0.32;;;8.90;99.90;;;;;;5004969;28;20414;-50
2021/12/28 08:11:09;;;;;;;1.42;1.33;;;8.90;99.90;;;;;;5006635;28;20428;-50
2021/12/28 08:13:34;;;;;;;1.00;0.88;;;8.90;99.90;;;;;;5004973;28;20140;-50
2021/12/28 08:16:00;;;;;;;0.60;0.60;;;8.90;99.90;;;;;;4996440;28;20085;-50
2021/12/28 08:18:26;;;;;;;0.30;0.30;;;8.90;99.90;;;;;;5002265;28;20018;-51
2021/12/28 08:20:51;;;;;;;1.75;0.82;;;8.90;99.90;;;;;;5001679;28;20041;-50
2021/12/28 08:23:17;;;;;;;0.77;0.60;;;8.90;99.90;;;;;;5009256;28;20499;-50
2021/12/28 08:25:42;;;;;;;0.30;0.30;;;8.90;99.90;;;;;;5008568;28;20026;-50
2021/12/28 08:28:08;;;;;;;0.63;0.63;;;8.90;99.90;;;;;;5008169;28;20222;-50
2021/12/28 08:30:36;;;;;;;0.47;0.47;;;8.90;99.90;;;;;;5009801;28;20104;-50
2021/12/28 08:33:07;;;;;;;0.55;0.32;;;8.90;99.90;;;;;;5006381;28;20022;-50
2021/12/28 08:35:33;;;;;;;;;;;8.90;99.90;;;;;;5010074;28;20026;-50
2021/12/28 08:37:59;;;;;;;1.40;0.85;;;8.90;99.90;;;;;;5009721;28;19909;-50
2021/12/28 08:40:25;;;;;;;0.50;0.50;;;8.90;99.90;;;;;;5009692;28;20084;-50
2021/12/28 08:42:51;;;;;;;1.20;1.00;;;8.90;99.90;;;;;;5007063;28;20028;-50
2021/12/28 08:45:17;;;;;;;0.30;0.30;;;8.90;99.90;;;;;;5009980;28;20034;-50
2021/12/28 08:47:45;;;;;;;0.63;0.63;;;8.90;99.90;;;;;;5005379;28;21910;-49
2021/12/28 08:50:11;;;;;;;3.15;0.73;;;8.90;99.90;;;;;;5008761;28;20030;-50
2021/12/28 08:52:37;;;;;;;1.25;1.10;;;8.90;99.90;;;;;;5008954;28;20399;-50
2021/12/28 08:55:04;;;;;;;0.30;0.30;;;8.90;99.90;;;;;;5007449;28;20033;-50
2021/12/28 08:57:30;;;;;;;0.30;0.30;;;8.90;99.90;;;;;;5007452;28;20117;-50
2021/12/28 08:59:55;;;;;;;0.60;0.60;;;8.90;99.90;;;;;;5009366;28;20125;-50
2021/12/28 09:02:21;;;;;;;0.70;0.70;;;8.90;99.90;;;;;;5007527;28;20034;-50
2021/12/28 09:04:46;;;;;;;0.32;0.32;;;8.90;99.90;;;;;;5008330;28;20087;-51
2021/12/28 09:07:13;;;;;;;0.30;0.30;;;8.90;99.90;;;;;;5009320;28;20026;-52
2021/12/28 09:09:39;;;;;;;0.22;0.22;;;8.90;99.90;;;;;;5005795;28;20038;-51
2021/12/28 09:12:06;;;;;;;0.38;0.38;;;8.90;99.90;;;;;;5005695;28;20030;-52
2021/12/28 09:14:32;;;;;;;3.30;0.93;;;8.90;99.90;;;;;;5007255;28;20048;-52
2021/12/28 09:16:58;;;;;;;0.47;0.47;;;8.90;99.90;;;;;;5008238;28;20038;-51
2021/12/28 09:19:24;;;;;;;0.35;0.35;;;8.90;99.90;;;;;;5009025;28;20424;-51
2021/12/28 09:21:50;;;;;;;0.65;0.63;;;8.90;99.90;;;;;;5008719;28;20403;-52
2021/12/28 09:24:16;;;;;;;7.00;0.40;;;8.80;99.90;;;;;;5005950;28;20023;-51
2021/12/28 09:26:42;;;;;;;0.75;0.68;;;8.80;99.90;;;;;;5007920;28;20026;-51
2021/12/28 09:29:07;;;;;;;0.52;0.47;;;8.80;99.90;;;;;;5007809;28;20022;-52
2021/12/28 09:31:33;;;;;;;0.43;0.43;;;8.80;99.90;;;;;;5008545;28;20033;-52
2021/12/28 09:33:59;;;;;;;2.10;0.80;;;8.80;99.90;;;;;;5009264;28;20105;-51
2021/12/28 09:36:26;;;;;;;0.40;0.40;;;8.80;99.90;;;;;;5011241;28;20076;-52
2021/12/28 09:38:52;;;;;;;0.75;0.70;;;8.80;99.90;;;;;;5012075;28;20030;-52
2021/12/28 09:41:17;;;;;;;0.40;0.40;;;8.80;99.90;;;;;;5012028;28;20025;-52
2021/12/28 09:43:43;;;;;;;1.15;1.05;;;8.80;99.90;;;;;;5011467;28;20476;-51
2021/12/28 09:46:09;;;;;;;2.45;0.98;;;8.80;99.90;;;;;;5011307;28;20026;-52
2021/12/28 09:48:36;;;;;;;4.03;0.82;;;8.80;99.90;;;;;;5011229;28;20135;-51
2021/12/28 09:51:02;;;;;;;0.47;0.47;;;8.90;99.90;;;;;;5012795;28;20464;-52
2021/12/28 09:53:28;;;;;;;0.60;0.57;;;8.80;99.90;;;;;;5011439;28;20511;-51
2021/12/28 09:55:54;;;;;;;0.30;0.30;;;8.80;99.90;;;;;;5013072;28;20207;-51
2021/12/28 09:58:20;;;;;;;0.70;0.60;;;8.80;99.90;;;;;;5011026;28;20021;-51
2021/12/28 10:00:45;;;;;;;0.57;0.57;;;8.80;99.90;;;;;;5011219;28;20095;-52
2021/12/28 10:03:11;;;;;;;1.13;0.98;;;8.80;99.90;;;;;;5011721;28;20030;-52
2021/12/28 10:05:37;;;;;;;0.70;0.70;;;8.80;99.90;;;;;;5010742;28;20033;-52
2021/12/28 10:08:05;;;;;;;2.53;1.05;;;8.80;99.90;;;;;;5010562;28;20034;-52
2021/12/28 10:10:43;;;;;;;1.23;0.90;;;8.80;99.90;;;;;;5011449;28;20431;-51
2021/12/28 10:13:19;;;;;;;0.93;0.88;;;8.80;99.90;;;;;;5008447;28;20124;-52
2021/12/28 10:15:46;;;;;;;0.45;0.45;;;8.80;99.90;;;;;;5006910;28;20368;-51
2021/12/28 10:18:13;;;;;;;1.75;1.10;;;8.80;99.90;;;;;;5011630;28;20042;-52
2021/12/28 10:20:39;;;;;;;1.23;1.05;;;8.90;99.90;;;;;;5012049;28;20038;-52
2021/12/28 10:23:10;;;;;;;3.17;1.30;;;8.80;99.90;;;;;;5009303;28;20029;-52
2021/12/28 10:25:41;;;;;;;0.50;0.50;;;8.80;99.90;;;;;;5011155;28;20025;-52
2021/12/28 10:28:13;;;;;;;0.90;0.77;;;8.80;99.90;;;;;;5009840;28;20053;-51
2021/12/28 10:30:42;;;;;;;0.32;0.28;;;8.80;99.90;;;;;;5011094;28;20087;-52
2021/12/28 10:33:11;;;;;;;0.60;0.60;;;8.80;99.90;;;;;;5008022;28;20034;-51
2021/12/28 10:35:47;;;;;;;1.85;0.50;;;8.90;99.90;;;;;;5006347;28;20032;-52
2021/12/28 10:38:18;;;;;;;0.38;0.38;;;8.80;99.90;;;;;;5010732;28;20052;-51
2021/12/28 10:40:46;;;;;;;0.30;0.30;;;8.90;99.90;;;;;;5011804;28;20064;-51
2021/12/28 10:43:22;;;;;;;0.30;0.30;;;8.90;99.90;;;;;;5002121;28;20084;-51
2021/12/28 10:46:00;;;;;;;0.50;0.50;;;8.90;99.90;;;;;;5009782;28;20796;-51
2021/12/28 10:48:27;;;;;;;0.60;0.60;;;8.90;99.90;;;;;;5008039;28;20030;-52
2021/12/28 10:51:02;;;;;;;0.98;0.50;;;8.90;99.90;;;;;;5011847;28;20030;-51
2021/12/28 10:53:36;;;;;;;0.47;0.47;;;8.90;99.90;;;;;;5008202;28;20116;-51
2021/12/28 10:56:07;;;;;;;0.50;0.50;;;8.90;99.90;;;;;;5011242;28;20026;-51
2021/12/28 10:58:39;;;;;;;;;;;8.90;99.90;;;;;;5005460;28;20029;-51
2021/12/28 11:01:15;;;;;;;0.30;0.30;;;8.90;99.90;;;;;;5008129;28;20314;-52
2021/12/28 11:03:44;;;;;;;0.30;0.30;;;8.90;99.90;;;;;;5010243;28;20047;-51
2021/12/28 11:06:24;;;;;;;0.37;0.37;;;8.90;99.90;;;;;;5009582;28;20084;-51
2021/12/28 11:08:55;;;;;;;0.30;0.30;;;8.90;99.90;;;;;;5010017;28;20372;-51
2021/12/28 11:11:24;;;;;;;0.50;0.50;;;8.90;99.90;;;;;;5009081;28;20034;-51
2021/12/28 11:14:00;;;;;;;0.85;0.52;;;8.90;99.90;;;;;;5005767;28;20137;-51
2021/12/28 11:16:27;;;;;;;8.25;0.82;;;8.90;99.90;;;;;;5005503;28;20155;-52
2021/12/28 11:18:57;;;;;;;0.50;0.50;;;8.90;99.90;;;;;;5005242;28;20056;-51
2021/12/28 11:21:29;;;;;;;0.83;0.33;;;9.00;99.90;;;;;;5010287;28;20034;-51
2021/12/28 11:24:15;;;;;;;0.68;0.68;;;9.00;99.90;;;;;;5010679;28;20109;-51
2021/12/28 11:26:47;;;;;;;0.32;0.32;;;9.00;99.90;;;;;;5010977;28;20053;-51
2021/12/28 11:29:22;;;;;;;0.60;0.60;;;9.00;99.90;;;;;;5006133;28;20343;-52
2021/12/28 11:31:57;;;;;;;0.60;0.60;;;8.90;99.90;;;;;;5010353;28;20117;-51
2021/12/28 11:34:32;;;;;;;1.27;0.80;;;8.90;99.90;;;;;;5009099;28;20037;-51
2021/12/28 11:37:03;;;;;;;0.20;0.20;;;8.90;99.90;;;;;;5010158;28;20018;-51
2021/12/28 11:39:46;;;;;;;0.88;0.82;;;9.00;99.90;;;;;;5009088;28;20484;-52
2021/12/28 11:42:15;;;;;;;1.02;0.80;;;9.00;99.90;;;;;;5009868;28;20108;-51
2021/12/28 11:44:41;;;;;;;3.85;0.50;;;9.00;99.90;;;;;;5004858;28;20033;-51
2021/12/28 11:47:09;;;;;;;1.33;0.90;;;9.00;99.90;;;;;;5010778;28;20156;-51
2021/12/28 11:49:37;;;;;;;4.03;1.13;;;9.00;99.90;;;;;;5006156;28;20030;-51
2021/12/28 11:52:10;;;;;;;0.40;0.40;;;9.00;99.90;;;;;;5007689;28;20404;-51
2021/12/28 11:54:38;;;;;;;0.80;0.63;;;9.00;99.90;;;;;;5009580;28;20080;-51
2021/12/28 11:57:13;;;;;;;0.93;0.80;;;9.00;99.90;;;;;;5010792;28;20341;-51
2021/12/28 11:59:40;;;;;;;1.08;0.98;;;9.00;99.90;;;;;;5003798;28;20049;-51
2021/12/28 12:02:08;;;;;;;0.60;0.60;;;9.00;99.90;;;;;;5007331;28;20037;-51
2021/12/28 12:04:34;;;;;;;0.93;0.85;;;9.00;99.90;;;;;;5010465;28;20164;-52
2021/12/28 12:07:06;;;;;;;0.70;0.70;;;9.00;99.90;;;;;;5009846;28;20108;-51
2021/12/28 12:09:52;;;;;;;0.55;0.55;;;9.00;99.90;;;;;;5010034;28;20022;-52
2021/12/28 12:12:18;;;;;;;1.13;1.05;;;9.00;99.90;;;;;;5009064;28;20029;-51
2021/12/28 12:15:09;;;;;;;12.35;0.98;;;9.00;99.90;;;;;;5007241;28;20707;-51
2021/12/28 12:17:37;;;;;;;1.08;0.68;;;9.00;99.90;;;;;;5009279;28;20034;-52
2021/12/28 12:20:20;;;;;;;0.80;0.80;;;9.00;99.90;;;;;;5010128;28;20064;-51
2021/12/28 12:22:52;;;;;;;0.82;0.65;;;9.00;99.90;;;;;;5006124;28;20033;-51
2021/12/28 12:25:24;;;;;;;0.57;0.57;;;9.00;99.90;;;;;;5007907;28;20480;-51
2021/12/28 12:27:57;;;;;;;0.20;0.20;;;9.00;99.90;;;;;;5006773;28;20034;-49
2021/12/28 12:30:28;;;;;;;0.63;0.63;;;9.00;99.90;;;;;;5006064;28;20077;-52
2021/12/28 12:33:06;;;;;;;0.68;0.68;;;9.10;99.90;;;;;;5002859;28;20037;-51
2021/12/28 12:35:33;;;;;;;0.50;0.50;;;9.10;99.90;;;;;;5005614;28;20029;-52
2021/12/28 12:38:00;;;;;;;0.40;0.40;;;9.10;99.90;;;;;;5005230;28;20343;-52
2021/12/28 12:40:54;;;;;;;0.98;0.30;;;9.10;99.90;;;;;;5007754;28;20484;-52
2021/12/28 12:43:23;;;;;;;0.43;0.43;;;9.00;99.90;;;;;;5003726;28;20033;-52
2021/12/28 12:45:51;;;;;;;0.38;0.38;;;9.10;99.90;;;;;;5008429;28;20033;-52
2021/12/28 12:48:41;;;;;;;0.20;0.20;;;9.10;99.90;;;;;;5009677;28;20069;-52
2021/12/28 12:51:26;;;;;;;0.30;0.30;;;9.10;99.90;;;;;;5008102;28;20492;-52
2021/12/28 12:53:54;;;;;;;0.30;0.30;;;9.10;99.90;;;;;;5003598;28;20377;-52
2021/12/28 12:56:22;;;;;;;0.38;0.38;;;9.10;99.90;;;;;;5009538;28;20038;-52
2021/12/28 12:58:50;;;;;;;0.40;0.40;;;9.10;99.90;;;;;;5006708;28;20033;-52
2021/12/28 13:01:25;;;;;;;0.50;0.50;;;9.10;99.90;;;;;;5006846;28;20089;-52